createdAt,value
2017-08-09T00:00:24.400Z,1009.39
2017-08-09T00:01:33.258Z,1009.48
2017-08-09T00:02:42.123Z,1009.48
2017-08-09T00:03:50.971Z,1009.5
2017-08-09T00:04:59.829Z,1009.55
2017-08-09T00:06:08.685Z,1009.59
2017-08-09T00:07:17.534Z,1009.6
2017-08-09T00:08:26.392Z,1009.58
2017-08-09T00:09:35.246Z,1009.56
2017-08-09T00:10:44.091Z,1009.61
2017-08-09T00:11:52.946Z,1009.62
2017-08-09T00:13:01.792Z,1009.65
2017-08-09T00:14:10.652Z,1009.66
2017-08-09T00:15:19.505Z,1009.63
2017-08-09T00:16:28.377Z,1009.63
2017-08-09T00:17:37.231Z,1009.63
2017-08-09T00:18:46.086Z,1009.66
2017-08-09T00:19:54.940Z,1009.66
2017-08-09T00:21:03.796Z,1009.69
2017-08-09T00:22:12.666Z,1009.66
2017-08-09T00:23:21.515Z,1009.72
2017-08-09T00:24:30.370Z,1009.73
2017-08-09T00:25:39.232Z,1009.73
2017-08-09T00:26:48.076Z,1009.7
2017-08-09T00:27:57.250Z,1009.78
2017-08-09T00:29:06.096Z,1009.77
2017-08-09T00:30:14.945Z,1009.83
2017-08-09T00:31:24.122Z,1009.83
2017-08-09T00:32:32.971Z,1009.82
2017-08-09T00:33:41.839Z,1009.8
2017-08-09T00:34:51.005Z,1009.77
2017-08-09T00:35:59.864Z,1009.71
2017-08-09T00:37:08.712Z,1009.73
2017-08-09T00:38:17.578Z,1009.74
2017-08-09T00:39:26.433Z,1009.76
2017-08-09T00:40:35.291Z,1009.78
2017-08-09T00:41:44.467Z,1009.8
2017-08-09T00:42:53.318Z,1009.79
2017-08-09T00:44:02.165Z,1009.76
2017-08-09T00:45:11.017Z,1009.72
2017-08-09T00:46:19.871Z,1009.73
2017-08-09T00:47:28.731Z,1009.76
2017-08-09T00:48:37.578Z,1009.78
2017-08-09T00:49:46.432Z,1009.72
2017-08-09T00:50:55.278Z,1009.77
2017-08-09T00:52:04.147Z,1009.76
2017-08-09T00:53:13.316Z,1009.76
2017-08-09T00:54:22.173Z,1009.75
2017-08-09T00:55:31.336Z,1009.77
2017-08-09T00:56:40.189Z,1009.79
2017-08-09T00:57:49.146Z,1009.74
2017-08-09T00:58:57.995Z,1009.78
2017-08-09T01:00:06.850Z,1009.74
2017-08-09T01:01:15.701Z,1009.74
2017-08-09T01:02:24.554Z,1009.71
2017-08-09T01:03:33.412Z,1009.73
2017-08-09T01:04:42.257Z,1009.73
2017-08-09T01:05:51.113Z,1009.7
2017-08-09T01:06:59.967Z,1009.74
2017-08-09T01:08:09.130Z,1009.75
2017-08-09T01:09:17.983Z,1009.74
2017-08-09T01:10:26.865Z,1009.76
2017-08-09T01:11:35.726Z,1009.82
2017-08-09T01:12:44.582Z,1009.88
2017-08-09T01:13:53.438Z,1009.96
2017-08-09T01:15:02.289Z,1010.05
2017-08-09T01:16:11.140Z,1010.1
2017-08-09T01:17:20.009Z,1010.15
2017-08-09T01:18:29.175Z,1010.18
2017-08-09T01:19:38.030Z,1010.17
2017-08-09T01:20:46.885Z,1010.09
2017-08-09T01:21:55.741Z,1010.11
2017-08-09T01:23:04.589Z,1010.11
2017-08-09T01:24:13.441Z,1010.15
2017-08-09T01:25:22.290Z,1010.16
2017-08-09T01:26:31.143Z,1010.13
2017-08-09T01:27:40.001Z,1010.13
2017-08-09T01:28:48.858Z,1010.16
2017-08-09T01:29:57.711Z,1010.19
2017-08-09T01:31:06.888Z,1010.16
2017-08-09T01:32:15.738Z,1010.17
2017-08-09T01:33:24.591Z,1010.2
2017-08-09T01:34:33.441Z,1010.26
2017-08-09T01:35:42.289Z,1010.33
2017-08-09T01:36:51.139Z,1010.35
2017-08-09T01:37:59.991Z,1010.36
2017-08-09T01:39:08.851Z,1010.33
2017-08-09T01:40:17.706Z,1010.36
2017-08-09T01:41:26.561Z,1010.35
2017-08-09T01:42:35.410Z,1010.35
2017-08-09T01:43:44.267Z,1010.32
2017-08-09T01:44:53.126Z,1010.33
2017-08-09T01:46:01.977Z,1010.34
2017-08-09T01:47:11.145Z,1010.32
2017-08-09T01:48:19.998Z,1010.2
2017-08-09T01:49:28.850Z,1010.13
2017-08-09T01:50:37.703Z,1010.17
2017-08-09T01:51:46.555Z,1010.23
2017-08-09T01:52:55.419Z,1010.21
2017-08-09T01:54:04.268Z,1010.16
2017-08-09T01:55:13.459Z,1010.15
2017-08-09T01:56:22.309Z,1010.21
2017-08-09T01:57:31.164Z,1010.31
2017-08-09T01:58:40.012Z,1010.37
2017-08-09T01:59:48.864Z,1010.34
2017-08-09T02:00:57.717Z,1010.34
2017-08-09T02:02:06.575Z,1010.44
2017-08-09T02:03:15.741Z,1010.46
2017-08-09T02:04:24.588Z,1010.43
2017-08-09T02:05:33.446Z,1010.43
2017-08-09T02:06:42.306Z,1010.4
2017-08-09T02:07:51.163Z,1010.48
2017-08-09T02:09:00.017Z,1010.46
2017-08-09T02:10:08.873Z,1010.43
2017-08-09T02:11:17.720Z,1010.39
2017-08-09T02:12:26.573Z,1010.3
2017-08-09T02:13:35.422Z,1010.26
2017-08-09T02:14:44.279Z,1010.22
2017-08-09T02:15:53.131Z,1010.27
2017-08-09T02:17:01.988Z,1010.32
2017-08-09T02:18:10.844Z,1010.38
2017-08-09T02:19:20.008Z,1010.36
2017-08-09T02:20:28.860Z,1010.37
2017-08-09T02:21:37.713Z,1010.26
2017-08-09T02:22:46.883Z,1010.33
2017-08-09T02:23:55.735Z,1010.32
2017-08-09T02:25:04.591Z,1010.31
2017-08-09T02:26:13.438Z,1010.29
2017-08-09T02:27:22.286Z,1010.22
2017-08-09T02:28:31.142Z,1010.32
2017-08-09T02:29:39.999Z,1010.25
2017-08-09T02:30:48.882Z,1010.26
2017-08-09T02:31:57.751Z,1010.24
2017-08-09T02:33:06.933Z,1010.23
2017-08-09T02:34:15.782Z,1010.25
2017-08-09T02:35:24.638Z,1010.31
2017-08-09T02:36:33.496Z,1010.36
2017-08-09T02:37:42.343Z,1010.4
2017-08-09T02:38:51.201Z,1010.45
2017-08-09T02:40:00.054Z,1010.47
2017-08-09T02:41:08.917Z,1010.48
2017-08-09T02:42:17.768Z,1010.49
2017-08-09T02:43:26.617Z,1010.46
2017-08-09T02:44:35.466Z,1010.45
2017-08-09T02:45:44.330Z,1010.48
2017-08-09T02:46:53.182Z,1010.46
2017-08-09T02:48:02.035Z,1010.4
2017-08-09T02:49:11.221Z,1010.36
2017-08-09T02:50:20.086Z,1010.3
2017-08-09T02:51:28.939Z,1010.26
2017-08-09T02:52:37.798Z,1010.23
2017-08-09T02:53:46.646Z,1010.24
2017-08-09T02:54:55.498Z,1010.26
2017-08-09T02:56:04.352Z,1010.32
2017-08-09T02:57:13.210Z,1010.32
2017-08-09T02:58:22.072Z,1010.34
2017-08-09T02:59:30.931Z,1010.4
2017-08-09T03:00:39.785Z,1010.39
2017-08-09T03:01:48.639Z,1010.37
2017-08-09T03:02:57.495Z,1010.35
2017-08-09T03:04:06.972Z,1010.4
2017-08-09T03:05:15.832Z,1010.41
2017-08-09T03:06:24.681Z,1010.46
2017-08-09T03:07:33.533Z,1010.47
2017-08-09T03:08:42.386Z,1010.52
2017-08-09T03:09:51.246Z,1010.54
2017-08-09T03:11:00.113Z,1010.57
2017-08-09T03:12:09.278Z,1010.59
2017-08-09T03:13:18.128Z,1010.61
2017-08-09T03:14:26.986Z,1010.61
2017-08-09T03:15:35.836Z,1010.55
2017-08-09T03:16:44.695Z,1010.52
2017-08-09T03:17:53.553Z,1010.47
2017-08-09T03:19:02.398Z,1010.45
2017-08-09T03:20:11.257Z,1010.47
2017-08-09T03:21:20.106Z,1010.49
2017-08-09T03:22:28.956Z,1010.53
2017-08-09T03:23:37.809Z,1010.54
2017-08-09T03:24:46.665Z,1010.59
2017-08-09T03:25:55.519Z,1010.63
2017-08-09T03:27:04.366Z,1010.66
2017-08-09T03:28:13.220Z,1010.67
2017-08-09T03:29:22.389Z,1010.64
2017-08-09T03:30:31.236Z,1010.6
2017-08-09T03:31:40.125Z,1010.64
2017-08-09T03:32:48.975Z,1010.65
2017-08-09T03:33:57.847Z,1010.68
2017-08-09T03:35:06.698Z,1010.64
2017-08-09T03:36:15.568Z,1010.64
2017-08-09T03:37:24.412Z,1010.63
2017-08-09T03:38:33.265Z,1010.67
2017-08-09T03:39:42.119Z,1010.67
2017-08-09T03:40:50.974Z,1010.7
2017-08-09T03:41:59.828Z,1010.72
2017-08-09T03:43:09.008Z,1010.72
2017-08-09T03:44:17.859Z,1010.73
2017-08-09T03:45:26.718Z,1010.67
2017-08-09T03:46:35.571Z,1010.68
2017-08-09T03:47:44.432Z,1010.66
2017-08-09T03:48:53.286Z,1010.72
2017-08-09T03:50:02.151Z,1010.72
2017-08-09T03:51:10.994Z,1010.72
2017-08-09T03:52:19.847Z,1010.75
2017-08-09T03:53:28.696Z,1010.8
2017-08-09T03:54:37.548Z,1010.78
2017-08-09T03:55:46.402Z,1010.77
2017-08-09T03:56:55.255Z,1010.8
2017-08-09T03:58:04.422Z,1010.8
2017-08-09T03:59:13.292Z,1010.81
2017-08-09T04:00:22.141Z,1010.83
2017-08-09T04:01:31.310Z,1010.81
2017-08-09T04:02:40.163Z,1010.82
2017-08-09T04:03:49.014Z,1010.8
2017-08-09T04:04:57.873Z,1010.85
2017-08-09T04:06:06.723Z,1010.82
2017-08-09T04:07:15.580Z,1010.83
2017-08-09T04:08:24.429Z,1010.88
2017-08-09T04:09:33.275Z,1010.92
2017-08-09T04:10:42.131Z,1010.91
2017-08-09T04:11:50.990Z,1010.89
2017-08-09T04:12:59.841Z,1010.92
2017-08-09T04:14:09.011Z,1010.99
2017-08-09T04:15:17.857Z,1011.03
2017-08-09T04:16:26.711Z,1011.05
2017-08-09T04:17:35.561Z,1011.08
2017-08-09T04:18:44.418Z,1011.09
2017-08-09T04:19:53.279Z,1011.11
2017-08-09T04:21:02.141Z,1011.16
2017-08-09T04:22:11.004Z,1011.15
2017-08-09T04:23:20.171Z,1011.18
2017-08-09T04:24:29.031Z,1011.17
2017-08-09T04:25:37.885Z,1011.2
2017-08-09T04:26:46.741Z,1011.23
2017-08-09T04:27:55.591Z,1011.18
2017-08-09T04:29:04.464Z,1011.21
2017-08-09T04:30:13.312Z,1011.22
2017-08-09T04:31:22.164Z,1011.2
2017-08-09T04:32:31.011Z,1011.21
2017-08-09T04:33:39.873Z,1011.26
2017-08-09T04:34:48.732Z,1011.31
2017-08-09T04:35:57.577Z,1011.36
2017-08-09T04:37:06.428Z,1011.33
2017-08-09T04:38:15.281Z,1011.37
2017-08-09T04:39:24.464Z,1011.4
2017-08-09T04:40:33.315Z,1011.37
2017-08-09T04:41:42.171Z,1011.39
2017-08-09T04:42:51.028Z,1011.39
2017-08-09T04:43:59.871Z,1011.41
2017-08-09T04:45:08.722Z,1011.44
2017-08-09T04:46:17.575Z,1011.5
2017-08-09T04:47:26.430Z,1011.48
2017-08-09T04:48:35.299Z,1011.48
2017-08-09T04:49:44.162Z,1011.47
2017-08-09T04:50:53.008Z,1011.51
2017-08-09T04:52:01.873Z,1011.45
2017-08-09T04:53:10.718Z,1011.49
2017-08-09T04:54:19.888Z,1011.52
2017-08-09T04:55:28.739Z,1011.53
2017-08-09T04:56:37.587Z,1011.51
2017-08-09T04:57:46.439Z,1011.52
2017-08-09T04:58:55.294Z,1011.54
2017-08-09T05:00:04.146Z,1011.56
2017-08-09T05:01:13.312Z,1011.62
2017-08-09T05:02:22.167Z,1011.63
2017-08-09T05:03:31.029Z,1011.67
2017-08-09T05:04:39.876Z,1011.67
2017-08-09T05:05:48.728Z,1011.68
2017-08-09T05:06:57.579Z,1011.76
2017-08-09T05:08:06.434Z,1011.79
2017-08-09T05:09:15.302Z,1011.8
2017-08-09T05:10:24.152Z,1011.8
2017-08-09T05:11:32.999Z,1011.83
2017-08-09T05:12:41.855Z,1011.83
2017-08-09T05:13:50.715Z,1011.86
2017-08-09T05:14:59.562Z,1011.85
2017-08-09T05:16:08.419Z,1011.82
2017-08-09T05:17:17.583Z,1011.82
2017-08-09T05:18:26.439Z,1011.86
2017-08-09T05:19:35.307Z,1011.85
2017-08-09T05:20:44.158Z,1011.89
2017-08-09T05:21:53.004Z,1011.89
2017-08-09T05:23:01.868Z,1011.93
2017-08-09T05:24:10.721Z,1011.92
2017-08-09T05:25:19.569Z,1011.94
2017-08-09T05:26:28.419Z,1011.93
2017-08-09T05:27:37.291Z,1011.94
2017-08-09T05:28:46.147Z,1011.9
2017-08-09T05:29:55.006Z,1011.91
2017-08-09T05:31:03.855Z,1011.97
2017-08-09T05:32:12.705Z,1011.94
2017-08-09T05:33:21.877Z,1011.93
2017-08-09T05:34:30.734Z,1011.92
2017-08-09T05:35:39.896Z,1011.93
2017-08-09T05:36:48.748Z,1011.93
2017-08-09T05:37:57.596Z,1011.92
2017-08-09T05:39:06.449Z,1011.91
2017-08-09T05:40:15.621Z,1011.9
2017-08-09T05:41:24.472Z,1011.89
2017-08-09T05:42:33.330Z,1011.9
2017-08-09T05:43:42.177Z,1011.91
2017-08-09T05:44:51.036Z,1011.96
2017-08-09T05:46:00.195Z,1011.96
2017-08-09T05:47:09.053Z,1011.98
2017-08-09T05:48:17.902Z,1012
2017-08-09T05:49:26.758Z,1012.04
2017-08-09T05:50:35.600Z,1012.04
2017-08-09T05:51:44.455Z,1012.03
2017-08-09T05:52:53.305Z,1012.05
2017-08-09T05:54:02.152Z,1012
2017-08-09T05:55:11.002Z,1012.06
2017-08-09T05:56:19.880Z,1012.06
2017-08-09T05:57:28.734Z,1012.01
2017-08-09T05:58:37.904Z,1012.04
2017-08-09T05:59:46.760Z,1012.04
2017-08-09T06:00:55.612Z,1012.1
2017-08-09T06:02:04.469Z,1012.12
2017-08-09T06:03:13.328Z,1012.13
2017-08-09T06:04:22.176Z,1012.14
2017-08-09T06:05:31.664Z,1012.11
2017-08-09T06:06:40.512Z,1012.08
2017-08-09T06:07:49.373Z,1012.05
2017-08-09T06:08:58.540Z,1012.06
2017-08-09T06:10:07.395Z,1012.08
2017-08-09T06:11:16.254Z,1012.08
2017-08-09T06:12:25.109Z,1012.09
2017-08-09T06:13:33.959Z,1012.15
2017-08-09T06:14:42.809Z,1012.17
2017-08-09T06:15:51.660Z,1012.18
2017-08-09T06:17:00.510Z,1012.23
2017-08-09T06:18:09.386Z,1012.29
2017-08-09T06:19:18.239Z,1012.28
2017-08-09T06:20:27.101Z,1012.31
2017-08-09T06:21:35.955Z,1012.34
2017-08-09T06:22:44.822Z,1012.31
2017-08-09T06:23:53.679Z,1012.25
2017-08-09T06:25:02.530Z,1012.26
2017-08-09T06:26:11.384Z,1012.24
2017-08-09T06:27:20.237Z,1012.28
2017-08-09T06:28:29.092Z,1012.31
2017-08-09T06:29:38.274Z,1012.33
2017-08-09T06:30:47.443Z,1012.34
2017-08-09T06:31:56.297Z,1012.41
2017-08-09T06:33:05.158Z,1012.39
2017-08-09T06:34:14.014Z,1012.42
2017-08-09T06:35:22.872Z,1012.43
2017-08-09T06:36:31.730Z,1012.44
2017-08-09T06:37:40.580Z,1012.45
2017-08-09T06:38:49.431Z,1012.43
2017-08-09T06:39:58.292Z,1012.43
2017-08-09T06:41:07.147Z,1012.51
2017-08-09T06:42:15.999Z,1012.59
2017-08-09T06:43:24.846Z,1012.63
2017-08-09T06:44:33.706Z,1012.67
2017-08-09T06:45:42.556Z,1012.69
2017-08-09T06:46:51.414Z,1012.69
2017-08-09T06:48:00.278Z,1012.66
2017-08-09T06:49:09.139Z,1012.69
2017-08-09T06:50:17.991Z,1012.74
2017-08-09T06:51:26.841Z,1012.8
2017-08-09T06:52:35.697Z,1012.82
2017-08-09T06:53:44.880Z,1012.87
2017-08-09T06:54:53.730Z,1012.95
2017-08-09T06:56:02.582Z,1012.92
2017-08-09T06:57:11.430Z,1012.91
2017-08-09T06:58:20.278Z,1012.92
2017-08-09T06:59:29.129Z,1012.94
2017-08-09T07:00:38.001Z,1012.94
2017-08-09T07:01:46.844Z,1012.95
2017-08-09T07:02:55.707Z,1012.97
2017-08-09T07:04:04.885Z,1012.94
2017-08-09T07:05:13.737Z,1012.95
2017-08-09T07:06:22.596Z,1012.93
2017-08-09T07:07:31.448Z,1012.98
2017-08-09T07:08:40.297Z,1013.01
2017-08-09T07:09:49.144Z,1012.98
2017-08-09T07:10:58.312Z,1013
2017-08-09T07:12:07.160Z,1012.99
2017-08-09T07:13:16.020Z,1012.9
2017-08-09T07:14:25.192Z,1012.95
2017-08-09T07:15:34.050Z,1012.98
2017-08-09T07:16:43.216Z,1013.04
2017-08-09T07:17:52.091Z,1013.01
2017-08-09T07:19:00.940Z,1012.98
2017-08-09T07:20:09.797Z,1013.01
2017-08-09T07:21:18.657Z,1013.04
2017-08-09T07:22:27.505Z,1013.07
2017-08-09T07:23:36.367Z,1013.05
2017-08-09T07:24:45.229Z,1013.06
2017-08-09T07:25:54.078Z,1013.08
2017-08-09T07:27:02.936Z,1013.03
2017-08-09T07:28:12.110Z,1013.07
2017-08-09T07:29:20.968Z,1013.07
2017-08-09T07:30:29.814Z,1013.05
2017-08-09T07:31:38.668Z,1012.95
2017-08-09T07:32:47.521Z,1012.92
2017-08-09T07:33:56.377Z,1012.92
2017-08-09T07:35:05.225Z,1012.89
2017-08-09T07:36:14.082Z,1012.93
2017-08-09T07:37:22.937Z,1012.98
2017-08-09T07:38:31.799Z,1012.95
2017-08-09T07:39:40.656Z,1012.92
2017-08-09T07:40:49.505Z,1012.96
2017-08-09T07:41:58.361Z,1013
2017-08-09T07:43:07.212Z,1012.97
2017-08-09T07:44:16.381Z,1013
2017-08-09T07:45:25.236Z,1012.97
2017-08-09T07:46:34.090Z,1013.04
2017-08-09T07:47:42.938Z,1013.04
2017-08-09T07:48:52.113Z,1013.06
2017-08-09T07:50:00.962Z,1013.14
2017-08-09T07:51:09.807Z,1013.15
2017-08-09T07:52:18.673Z,1013.19
2017-08-09T07:53:27.532Z,1013.24
2017-08-09T07:54:36.379Z,1013.26
2017-08-09T07:55:45.228Z,1013.31
2017-08-09T07:56:54.080Z,1013.37
2017-08-09T07:58:02.932Z,1013.37
2017-08-09T07:59:11.787Z,1013.41
2017-08-09T08:00:20.654Z,1013.42
2017-08-09T08:01:29.503Z,1013.44
2017-08-09T08:02:38.679Z,1013.47
2017-08-09T08:03:47.536Z,1013.47
2017-08-09T08:04:56.389Z,1013.45
2017-08-09T08:06:05.242Z,1013.44
2017-08-09T08:07:14.092Z,1013.44
2017-08-09T08:08:22.944Z,1013.46
2017-08-09T08:09:31.801Z,1013.47
2017-08-09T08:10:40.652Z,1013.45
2017-08-09T08:11:49.508Z,1013.45
2017-08-09T08:12:58.354Z,1013.44
2017-08-09T08:14:07.208Z,1013.45
2017-08-09T08:15:16.376Z,1013.45
2017-08-09T08:16:25.226Z,1013.44
2017-08-09T08:17:34.080Z,1013.45
2017-08-09T08:18:42.938Z,1013.45
2017-08-09T08:19:51.793Z,1013.47
2017-08-09T08:21:00.642Z,1013.46
2017-08-09T08:22:09.500Z,1013.44
2017-08-09T08:23:18.353Z,1013.45
2017-08-09T08:24:27.528Z,1013.49
2017-08-09T08:25:36.440Z,1013.49
2017-08-09T08:26:45.286Z,1013.5
2017-08-09T08:27:54.144Z,1013.5
2017-08-09T08:29:02.994Z,1013.58
2017-08-09T08:30:11.851Z,1013.55
2017-08-09T08:31:20.711Z,1013.54
2017-08-09T08:32:29.572Z,1013.57
2017-08-09T08:33:38.421Z,1013.58
2017-08-09T08:34:47.278Z,1013.58
2017-08-09T08:35:56.138Z,1013.69
2017-08-09T08:37:04.992Z,1013.65
2017-08-09T08:38:13.852Z,1013.66
2017-08-09T08:39:22.714Z,1013.64
2017-08-09T08:40:31.573Z,1013.62
2017-08-09T08:41:40.429Z,1013.65
2017-08-09T08:42:49.284Z,1013.65
2017-08-09T08:43:58.141Z,1013.64
2017-08-09T08:45:06.998Z,1013.64
2017-08-09T08:46:15.850Z,1013.62
2017-08-09T08:47:24.701Z,1013.66
2017-08-09T08:48:33.551Z,1013.66
2017-08-09T08:49:42.406Z,1013.65
2017-08-09T08:50:51.259Z,1013.65
2017-08-09T08:52:00.112Z,1013.66
2017-08-09T08:53:08.960Z,1013.67
2017-08-09T08:54:17.819Z,1013.66
2017-08-09T08:55:26.665Z,1013.65
2017-08-09T08:56:35.524Z,1013.64
2017-08-09T08:57:44.372Z,1013.64
2017-08-09T08:58:53.231Z,1013.57
2017-08-09T09:00:02.088Z,1013.61
2017-08-09T09:01:10.945Z,1013.59
2017-08-09T09:02:19.794Z,1013.56
2017-08-09T09:03:28.641Z,1013.6
2017-08-09T09:04:37.500Z,1013.59
2017-08-09T09:05:46.346Z,1013.57
2017-08-09T09:06:55.206Z,1013.56
2017-08-09T09:08:04.062Z,1013.56
2017-08-09T09:09:12.916Z,1013.55
2017-08-09T09:10:21.772Z,1013.52
2017-08-09T09:11:30.628Z,1013.56
2017-08-09T09:12:39.477Z,1013.56
2017-08-09T09:13:48.329Z,1013.56
2017-08-09T09:14:57.188Z,1013.59
2017-08-09T09:16:06.038Z,1013.6
2017-08-09T09:17:14.894Z,1013.65
2017-08-09T09:18:24.066Z,1013.64
2017-08-09T09:19:32.920Z,1013.62
2017-08-09T09:20:41.775Z,1013.64
2017-08-09T09:21:50.623Z,1013.67
2017-08-09T09:22:59.790Z,1013.67
2017-08-09T09:24:08.648Z,1013.72
2017-08-09T09:25:17.499Z,1013.72
2017-08-09T09:26:26.350Z,1013.71
2017-08-09T09:27:35.202Z,1013.71
2017-08-09T09:28:44.052Z,1013.75
2017-08-09T09:29:52.903Z,1013.7
2017-08-09T09:31:01.756Z,1013.71
2017-08-09T09:32:10.611Z,1013.73
2017-08-09T09:33:19.466Z,1013.75
2017-08-09T09:34:28.634Z,1013.69
2017-08-09T09:35:37.486Z,1013.68
2017-08-09T09:36:46.658Z,1013.67
2017-08-09T09:37:55.514Z,1013.66
2017-08-09T09:39:04.680Z,1013.64
2017-08-09T09:40:13.530Z,1013.64
2017-08-09T09:41:22.377Z,1013.65
2017-08-09T09:42:31.235Z,1013.67
2017-08-09T09:43:40.092Z,1013.66
2017-08-09T09:44:48.943Z,1013.67
2017-08-09T09:45:57.799Z,1013.67
2017-08-09T09:47:06.651Z,1013.68
2017-08-09T09:48:15.509Z,1013.65
2017-08-09T09:49:24.373Z,1013.69
2017-08-09T09:50:33.221Z,1013.68
2017-08-09T09:51:42.065Z,1013.69
2017-08-09T09:52:50.919Z,1013.68
2017-08-09T09:53:59.771Z,1013.68
2017-08-09T09:55:08.631Z,1013.71
2017-08-09T09:56:17.481Z,1013.72
2017-08-09T09:57:26.331Z,1013.67
2017-08-09T09:58:35.176Z,1013.64
2017-08-09T09:59:44.032Z,1013.63
2017-08-09T10:00:52.882Z,1013.61
2017-08-09T10:02:01.740Z,1013.63
2017-08-09T10:03:10.906Z,1013.64
2017-08-09T10:04:19.767Z,1013.6
2017-08-09T10:05:28.618Z,1013.61
2017-08-09T10:06:37.473Z,1013.62
2017-08-09T10:07:46.644Z,1013.64
2017-08-09T10:08:55.821Z,1013.61
2017-08-09T10:10:04.676Z,1013.65
2017-08-09T10:11:13.540Z,1013.7
2017-08-09T10:12:22.392Z,1013.7
2017-08-09T10:13:31.253Z,1013.7
2017-08-09T10:14:40.105Z,1013.62
2017-08-09T10:15:48.963Z,1013.64
2017-08-09T10:16:57.816Z,1013.67
2017-08-09T10:18:06.664Z,1013.64
2017-08-09T10:19:15.519Z,1013.63
2017-08-09T10:20:24.375Z,1013.62
2017-08-09T10:21:33.229Z,1013.57
2017-08-09T10:22:42.415Z,1013.53
2017-08-09T10:23:51.265Z,1013.54
2017-08-09T10:25:00.113Z,1013.55
2017-08-09T10:26:08.967Z,1013.56
2017-08-09T10:27:17.820Z,1013.62
2017-08-09T10:28:26.984Z,1013.62
2017-08-09T10:29:35.842Z,1013.63
2017-08-09T10:30:44.694Z,1013.63
2017-08-09T10:31:53.543Z,1013.6
2017-08-09T10:33:02.723Z,1013.59
2017-08-09T10:34:11.578Z,1013.56
2017-08-09T10:35:20.429Z,1013.53
2017-08-09T10:36:29.283Z,1013.56
2017-08-09T10:37:38.433Z,1013.56
2017-08-09T10:38:47.291Z,1013.58
2017-08-09T10:39:56.141Z,1013.62
2017-08-09T10:41:04.994Z,1013.62
2017-08-09T10:42:14.176Z,1013.61
2017-08-09T10:43:23.339Z,1013.58
2017-08-09T10:44:32.187Z,1013.6
2017-08-09T10:45:41.044Z,1013.58
2017-08-09T10:46:49.897Z,1013.64
2017-08-09T10:47:58.748Z,1013.64
2017-08-09T10:49:07.920Z,1013.7
2017-08-09T10:50:16.776Z,1013.66
2017-08-09T10:51:25.942Z,1013.64
2017-08-09T10:52:35.107Z,1013.64
2017-08-09T10:53:43.958Z,1013.63
2017-08-09T10:54:52.812Z,1013.63
2017-08-09T10:56:01.660Z,1013.65
2017-08-09T10:57:10.510Z,1013.64
2017-08-09T10:58:19.387Z,1013.59
2017-08-09T10:59:28.254Z,1013.58
2017-08-09T11:00:37.108Z,1013.59
2017-08-09T11:01:45.969Z,1013.56
2017-08-09T11:02:54.824Z,1013.53
2017-08-09T11:04:03.693Z,1013.53
2017-08-09T11:05:12.545Z,1013.55
2017-08-09T11:06:21.399Z,1013.5
2017-08-09T11:07:30.252Z,1013.55
2017-08-09T11:08:39.101Z,1013.55
2017-08-09T11:09:47.957Z,1013.58
2017-08-09T11:10:56.806Z,1013.56
2017-08-09T11:12:05.662Z,1013.57
2017-08-09T11:13:14.512Z,1013.59
2017-08-09T11:14:23.369Z,1013.58
2017-08-09T11:15:32.224Z,1013.61
2017-08-09T11:16:41.078Z,1013.6
2017-08-09T11:17:49.939Z,1013.6
2017-08-09T11:18:58.795Z,1013.54
2017-08-09T11:20:07.975Z,1013.6
2017-08-09T11:21:16.831Z,1013.67
2017-08-09T11:22:25.690Z,1013.62
2017-08-09T11:23:34.543Z,1013.62
2017-08-09T11:24:43.392Z,1013.63
2017-08-09T11:25:52.244Z,1013.62
2017-08-09T11:27:01.096Z,1013.64
2017-08-09T11:28:09.951Z,1013.62
2017-08-09T11:29:18.814Z,1013.59
2017-08-09T11:30:27.665Z,1013.57
2017-08-09T11:31:36.515Z,1013.55
2017-08-09T11:32:45.366Z,1013.6
2017-08-09T11:33:54.225Z,1013.57
2017-08-09T11:35:03.082Z,1013.55
2017-08-09T11:36:11.943Z,1013.57
2017-08-09T11:37:20.817Z,1013.59
2017-08-09T11:38:29.670Z,1013.57
2017-08-09T11:39:38.525Z,1013.57
2017-08-09T11:40:47.378Z,1013.61
2017-08-09T11:41:56.233Z,1013.58
2017-08-09T11:43:05.115Z,1013.59
2017-08-09T11:44:14.282Z,1013.61
2017-08-09T11:45:23.139Z,1013.64
2017-08-09T11:46:31.995Z,1013.6
2017-08-09T11:47:40.844Z,1013.59
2017-08-09T11:48:49.698Z,1013.56
2017-08-09T11:49:58.560Z,1013.54
2017-08-09T11:51:07.414Z,1013.54
2017-08-09T11:52:16.279Z,1013.53
2017-08-09T11:53:25.133Z,1013.53
2017-08-09T11:54:33.991Z,1013.5
2017-08-09T11:55:42.836Z,1013.44
2017-08-09T11:56:51.692Z,1013.41
2017-08-09T11:58:00.572Z,1013.45
2017-08-09T11:59:09.426Z,1013.46
2017-08-09T12:00:18.278Z,1013.42
2017-08-09T12:01:27.133Z,1013.39
2017-08-09T12:02:35.986Z,1013.41
2017-08-09T12:03:44.840Z,1013.34
2017-08-09T12:04:53.689Z,1013.34
2017-08-09T12:06:02.539Z,1013.38
2017-08-09T12:07:11.401Z,1013.39
2017-08-09T12:08:20.255Z,1013.37
2017-08-09T12:09:29.110Z,1013.35
2017-08-09T12:10:37.971Z,1013.37
2017-08-09T12:11:46.821Z,1013.39
2017-08-09T12:12:55.675Z,1013.38
2017-08-09T12:14:04.525Z,1013.39
2017-08-09T12:15:13.706Z,1013.41
2017-08-09T12:16:22.562Z,1013.36
2017-08-09T12:17:31.410Z,1013.38
2017-08-09T12:18:40.263Z,1013.36
2017-08-09T12:19:49.113Z,1013.36
2017-08-09T12:20:57.970Z,1013.29
2017-08-09T12:22:06.833Z,1013.25
2017-08-09T12:23:15.701Z,1013.27
2017-08-09T12:24:24.556Z,1013.29
2017-08-09T12:25:33.410Z,1013.23
2017-08-09T12:26:42.264Z,1013.25
2017-08-09T12:27:51.120Z,1013.26
2017-08-09T12:28:59.987Z,1013.3
2017-08-09T12:30:08.847Z,1013.24
2017-08-09T12:31:17.700Z,1013.27
2017-08-09T12:32:26.567Z,1013.22
2017-08-09T12:33:35.428Z,1013.29
2017-08-09T12:34:44.283Z,1013.3
2017-08-09T12:35:53.138Z,1013.31
2017-08-09T12:37:01.999Z,1013.37
2017-08-09T12:38:10.849Z,1013.28
2017-08-09T12:39:19.707Z,1013.4
2017-08-09T12:40:28.567Z,1013.34
2017-08-09T12:41:37.419Z,1013.3
2017-08-09T12:42:46.277Z,1013.32
2017-08-09T12:43:55.135Z,1013.32
2017-08-09T12:45:03.998Z,1013.33
2017-08-09T12:46:12.857Z,1013.38
2017-08-09T12:47:22.024Z,1013.35
2017-08-09T12:48:30.875Z,1013.32
2017-08-09T12:49:39.733Z,1013.34
2017-08-09T12:50:48.584Z,1013.33
2017-08-09T12:51:57.436Z,1013.3
2017-08-09T12:53:06.296Z,1013.22
2017-08-09T12:54:15.145Z,1013.26
2017-08-09T12:55:24.308Z,1013.32
2017-08-09T12:56:33.162Z,1013.4
2017-08-09T12:57:42.014Z,1013.36
2017-08-09T12:58:50.868Z,1013.31
2017-08-09T12:59:59.716Z,1013.35
2017-08-09T13:01:08.581Z,1013.34
2017-08-09T13:02:17.756Z,1013.28
2017-08-09T13:03:26.610Z,1013.3
2017-08-09T13:04:35.459Z,1013.36
2017-08-09T13:05:44.313Z,1013.29
2017-08-09T13:06:53.168Z,1013.33
2017-08-09T13:08:02.033Z,1013.34
2017-08-09T13:09:10.880Z,1013.3
2017-08-09T13:10:19.732Z,1013.31
2017-08-09T13:11:28.581Z,1013.3
2017-08-09T13:12:37.435Z,1013.27
2017-08-09T13:13:46.304Z,1013.28
2017-08-09T13:14:55.476Z,1013.2
2017-08-09T13:16:04.333Z,1013.23
2017-08-09T13:17:13.185Z,1013.22
2017-08-09T13:18:22.365Z,1013.2
2017-08-09T13:19:31.219Z,1013.18
2017-08-09T13:20:40.386Z,1013.15
2017-08-09T13:21:49.243Z,1013.11
2017-08-09T13:22:58.092Z,1013.12
2017-08-09T13:24:07.265Z,1013.11
2017-08-09T13:25:16.117Z,1013.12
2017-08-09T13:26:24.968Z,1013.19
2017-08-09T13:27:33.817Z,1013.19
2017-08-09T13:28:42.669Z,1013.21
2017-08-09T13:29:51.528Z,1013.2
2017-08-09T13:31:00.385Z,1013.21
2017-08-09T13:32:09.235Z,1013.19
2017-08-09T13:33:18.082Z,1013.17
2017-08-09T13:34:26.939Z,1013.2
2017-08-09T13:35:35.795Z,1013.18
2017-08-09T13:36:44.645Z,1013.2
2017-08-09T13:37:53.499Z,1013.19
2017-08-09T13:39:02.352Z,1013.19
2017-08-09T13:40:11.207Z,1013.15
2017-08-09T13:41:20.388Z,1013.19
2017-08-09T13:42:29.248Z,1013.14
2017-08-09T13:43:38.414Z,1013.07
2017-08-09T13:44:47.265Z,1013.03
2017-08-09T13:45:56.437Z,1013.09
2017-08-09T13:47:05.292Z,1013.13
2017-08-09T13:48:14.144Z,1013.13
2017-08-09T13:49:22.997Z,1013.17
2017-08-09T13:50:31.853Z,1013.17
2017-08-09T13:51:40.706Z,1013.2
2017-08-09T13:52:49.562Z,1013.15
2017-08-09T13:53:58.423Z,1013.17
2017-08-09T13:55:07.274Z,1013.12
2017-08-09T13:56:16.131Z,1013.16